createdAt,value
2019-06-10T00:02:07.921Z,2.67
2019-06-10T00:04:36.959Z,2.97
2019-06-10T00:07:07.278Z,2.73
2019-06-10T00:09:35.756Z,3.03
2019-06-10T00:12:06.007Z,3.00
2019-06-10T00:14:33.513Z,2.40
2019-06-10T00:17:04.460Z,2.77
2019-06-10T00:19:31.755Z,3.13
2019-06-10T00:22:02.407Z,2.63
2019-06-10T00:24:31.349Z,2.50
2019-06-10T00:27:00.303Z,2.50
2019-06-10T00:29:27.768Z,2.40
2019-06-10T00:31:56.901Z,2.80
2019-06-10T00:34:26.710Z,2.90
2019-06-10T00:36:59.643Z,2.40
2019-06-10T00:39:27.300Z,2.93
2019-06-10T00:41:56.140Z,2.77
2019-06-10T00:44:24.976Z,3.00
2019-06-10T00:46:54.628Z,2.70
2019-06-10T00:49:24.229Z,2.87
2019-06-10T00:51:53.063Z,3.17
2019-06-10T00:54:22.104Z,2.57
2019-06-10T00:56:51.761Z,2.50
2019-06-10T00:59:22.007Z,3.43
2019-06-10T01:01:50.896Z,2.93
2019-06-10T01:04:18.187Z,3.23
2019-06-10T01:06:48.280Z,3.10
2019-06-10T01:09:17.193Z,3.50
2019-06-10T01:11:46.074Z,2.47
2019-06-10T01:14:15.796Z,2.83
2019-06-10T01:16:46.201Z,3.20
2019-06-10T01:19:16.793Z,2.37
2019-06-10T01:21:46.864Z,2.80
2019-06-10T01:24:15.912Z,2.67
2019-06-10T01:26:44.871Z,3.37
2019-06-10T01:29:15.484Z,3.47
2019-06-10T01:31:42.676Z,2.70
2019-06-10T01:34:12.410Z,2.20
2019-06-10T01:36:40.665Z,2.87
2019-06-10T01:39:13.549Z,2.97
2019-06-10T01:41:41.039Z,3.27
2019-06-10T01:44:11.531Z,2.70
2019-06-10T01:46:41.026Z,2.80
2019-06-10T01:49:09.570Z,3.07
2019-06-10T01:51:37.562Z,3.00
2019-06-10T01:54:07.420Z,2.60
2019-06-10T01:56:35.303Z,2.83
2019-06-10T01:59:04.244Z,2.57
2019-06-10T02:01:44.330Z,3.10
2019-06-10T02:04:15.880Z,2.63
2019-06-10T02:06:42.110Z,2.77
2019-06-10T02:09:13.485Z,3.00
2019-06-10T02:11:41.418Z,3.20
2019-06-10T02:14:12.932Z,3.10
2019-06-10T02:16:41.297Z,2.13
2019-06-10T02:19:07.632Z,3.30
2019-06-10T02:21:36.475Z,3.20
2019-06-10T02:24:05.824Z,3.17
2019-06-10T02:26:36.389Z,3.00
2019-06-10T02:29:05.410Z,3.13
2019-06-10T02:31:37.411Z,3.27
2019-06-10T02:34:03.678Z,2.90
2019-06-10T02:36:36.577Z,2.50
2019-06-10T02:39:04.290Z,3.10
2019-06-10T02:41:35.381Z,2.53
2019-06-10T02:44:03.973Z,2.80
2019-06-10T02:46:31.363Z,3.10
2019-06-10T02:49:19.870Z,2.90
2019-06-10T02:51:31.548Z,2.80
2019-06-10T02:53:58.495Z,3.43
2019-06-10T02:56:30.721Z,2.77
2019-06-10T02:58:56.463Z,2.63
2019-06-10T03:01:32.205Z,3.73
2019-06-10T03:03:54.852Z,3.97
2019-06-10T03:06:31.845Z,3.60
2019-06-10T03:08:54.846Z,3.13
2019-06-10T03:11:27.251Z,3.13
2019-06-10T03:13:53.120Z,3.13
2019-06-10T03:16:25.843Z,3.17
2019-06-10T03:18:54.244Z,3.00
2019-06-10T03:21:25.855Z,3.20
2019-06-10T03:23:55.114Z,3.10
2019-06-10T03:26:25.580Z,3.40
2019-06-10T03:28:52.943Z,3.60
2019-06-10T03:31:30.923Z,3.50
2019-06-10T03:33:54.318Z,2.70
2019-06-10T03:36:24.107Z,3.63
2019-06-10T03:38:53.722Z,2.83
2019-06-10T03:41:22.900Z,3.43
2019-06-10T03:43:49.509Z,3.17
2019-06-10T03:46:19.050Z,3.40
2019-06-10T03:48:47.400Z,2.80
2019-06-10T03:51:17.197Z,3.33
2019-06-10T03:53:45.915Z,2.80
2019-06-10T03:56:14.856Z,3.20
2019-06-10T03:58:43.676Z,3.20
2019-06-10T04:01:12.675Z,2.80
2019-06-10T04:03:42.651Z,3.50
2019-06-10T04:06:12.665Z,3.13
2019-06-10T04:08:39.396Z,3.33
2019-06-10T04:11:08.308Z,3.20
2019-06-10T04:13:37.240Z,2.77
2019-06-10T04:16:06.226Z,3.40
2019-06-10T04:18:35.981Z,3.23
2019-06-10T04:21:04.956Z,3.17
2019-06-10T04:23:33.932Z,2.40
2019-06-10T04:26:03.439Z,3.10
2019-06-10T04:28:33.774Z,3.10
2019-06-10T04:31:02.590Z,3.13
2019-06-10T04:33:32.658Z,3.53
2019-06-10T04:36:02.589Z,3.03
2019-06-10T04:38:29.844Z,3.07
2019-06-10T04:40:59.533Z,2.73
2019-06-10T04:43:28.938Z,2.90
2019-06-10T04:45:57.411Z,3.00
2019-06-10T04:48:27.688Z,2.27
2019-06-10T04:50:56.160Z,2.80
2019-06-10T04:53:26.761Z,2.80
2019-06-10T04:55:53.924Z,2.27
2019-06-10T04:58:26.752Z,2.47
2019-06-10T05:00:52.788Z,2.47
2019-06-10T05:03:23.821Z,2.53
2019-06-10T05:05:52.576Z,2.50
2019-06-10T05:08:19.524Z,2.93
2019-06-10T05:10:48.463Z,2.83
2019-06-10T05:13:17.319Z,3.20
2019-06-10T05:15:46.225Z,2.60
2019-06-10T05:18:16.110Z,2.53
2019-06-10T05:20:54.818Z,2.37
2019-06-10T05:23:15.119Z,2.53
2019-06-10T05:25:43.964Z,2.37
2019-06-10T05:28:13.019Z,2.73
2019-06-10T05:30:42.689Z,2.87
2019-06-10T05:33:10.751Z,2.67
2019-06-10T05:35:39.650Z,2.67
2019-06-10T05:38:08.522Z,3.00
2019-06-10T05:40:37.974Z,2.57
2019-06-10T05:43:06.887Z,2.60
2019-06-10T05:45:35.810Z,3.00
2019-06-10T05:48:04.650Z,2.60
2019-06-10T05:50:34.910Z,2.97
2019-06-10T05:53:02.568Z,2.90
2019-06-10T05:55:33.753Z,3.13
2019-06-10T05:58:04.321Z,2.83
2019-06-10T06:00:35.439Z,2.80
2019-06-10T06:03:02.856Z,2.47
2019-06-10T06:05:33.291Z,2.73
2019-06-10T06:08:07.665Z,2.80
2019-06-10T06:10:29.484Z,3.03
2019-06-10T06:12:58.824Z,2.87
2019-06-10T06:15:27.651Z,2.90
2019-06-10T06:18:07.146Z,2.93
2019-06-10T06:20:27.135Z,2.27
2019-06-10T06:22:56.216Z,2.27
2019-06-10T06:25:27.394Z,2.27
2019-06-10T06:27:54.064Z,2.50
2019-06-10T06:30:23.052Z,1.93
2019-06-10T06:32:53.323Z,1.90
2019-06-10T06:35:22.698Z,2.00
2019-06-10T06:37:53.976Z,2.20
2019-06-10T06:40:22.968Z,1.63
2019-06-10T06:42:52.424Z,2.10
2019-06-10T06:45:19.242Z,2.40
2019-06-10T06:47:48.167Z,2.20
2019-06-10T06:50:17.049Z,2.47
2019-06-10T06:53:15.331Z,2.10
2019-06-10T06:55:20.407Z,2.20
2019-06-10T06:57:52.877Z,2.00
2019-06-10T07:00:38.334Z,2.00
2019-06-10T07:02:52.943Z,2.13
2019-06-10T07:05:22.822Z,2.10
2019-06-10T07:07:49.883Z,2.33
2019-06-10T07:10:18.792Z,2.10
2019-06-10T07:12:47.643Z,2.30
2019-06-10T07:15:16.503Z,2.43
2019-06-10T07:17:46.322Z,2.07
2019-06-10T07:20:15.763Z,2.63
2019-06-10T07:22:46.726Z,2.47
2019-06-10T07:25:13.927Z,2.33
2019-06-10T07:27:45.170Z,2.33
2019-06-10T07:30:15.190Z,2.03
2019-06-10T07:32:46.815Z,2.07
2019-06-10T07:35:12.845Z,2.57
2019-06-10T07:37:41.668Z,2.70
2019-06-10T07:40:09.638Z,2.53
2019-06-10T07:42:38.996Z,2.50
2019-06-10T07:45:07.407Z,2.40
2019-06-10T07:47:37.002Z,2.23
2019-06-10T07:50:06.161Z,2.77
2019-06-10T07:52:35.985Z,2.20
2019-06-10T07:55:04.298Z,2.70
2019-06-10T07:57:34.767Z,2.07
2019-06-10T08:00:03.636Z,2.93
2019-06-10T08:02:34.074Z,3.07
2019-06-10T08:05:03.658Z,2.80
2019-06-10T08:07:33.422Z,1.97
2019-06-10T08:10:02.889Z,2.60
2019-06-10T08:12:29.571Z,2.63
2019-06-10T08:15:02.540Z,3.83
2019-06-10T08:17:28.845Z,2.50
2019-06-10T08:19:57.951Z,2.47
2019-06-10T08:22:33.429Z,2.70
2019-06-10T08:24:58.268Z,2.60
2019-06-10T08:27:27.340Z,2.80
2019-06-10T08:30:14.075Z,2.73
2019-06-10T08:32:25.651Z,2.83
2019-06-10T08:34:56.015Z,2.37
2019-06-10T08:37:24.933Z,7.47
2019-06-10T08:39:55.389Z,3.07
2019-06-10T08:42:24.645Z,2.40
2019-06-10T08:44:54.192Z,2.80
2019-06-10T08:47:23.139Z,2.90
2019-06-10T08:49:53.640Z,2.77
2019-06-10T08:52:23.915Z,2.63
2019-06-10T08:54:54.525Z,2.47
2019-06-10T08:57:23.865Z,2.70
2019-06-10T08:59:53.343Z,2.80
2019-06-10T09:02:23.031Z,2.80
2019-06-10T09:04:53.590Z,2.57
2019-06-10T09:07:19.778Z,3.13
2019-06-10T09:09:50.313Z,2.73
2019-06-10T09:12:32.482Z,2.90
2019-06-10T09:14:53.390Z,3.00
2019-06-10T09:17:23.390Z,2.83
2019-06-10T09:19:54.813Z,2.70
2019-06-10T09:22:23.963Z,2.97
2019-06-10T09:24:56.372Z,2.50
2019-06-10T09:27:26.728Z,2.90
2019-06-10T09:29:55.347Z,3.20
2019-06-10T09:32:24.804Z,3.53
2019-06-10T09:34:57.553Z,3.10
2019-06-10T09:37:27.111Z,3.00
2019-06-10T09:39:59.569Z,2.83
2019-06-10T09:42:27.471Z,2.20
2019-06-10T09:45:02.437Z,2.40
2019-06-10T09:47:33.979Z,2.50
2019-06-10T09:50:03.189Z,3.03
2019-06-10T09:52:33.750Z,3.20
2019-06-10T09:55:03.312Z,2.80
2019-06-10T09:57:32.253Z,3.17
2019-06-10T10:00:04.060Z,2.70
2019-06-10T10:02:30.164Z,2.80
2019-06-10T10:04:59.064Z,2.50
2019-06-10T10:07:28.170Z,2.97
2019-06-10T10:09:57.455Z,3.27
2019-06-10T10:12:25.899Z,2.70
2019-06-10T10:14:56.294Z,3.43
2019-06-10T10:17:24.071Z,2.83
2019-06-10T10:19:56.751Z,2.80
2019-06-10T10:22:23.006Z,3.10
2019-06-10T10:24:55.144Z,2.47
2019-06-10T10:27:23.233Z,2.73
2019-06-10T10:29:55.084Z,2.60
2019-06-10T10:32:19.522Z,2.97
2019-06-10T10:34:49.870Z,3.53
2019-06-10T10:37:18.114Z,2.97
2019-06-10T10:39:47.123Z,2.73
2019-06-10T10:42:16.008Z,3.10
2019-06-10T10:44:49.184Z,3.37
2019-06-10T10:47:15.466Z,4.03
2019-06-10T10:49:44.984Z,3.40
2019-06-10T10:52:13.472Z,3.53
2019-06-10T10:54:44.598Z,3.47
2019-06-10T10:57:13.210Z,3.10
2019-06-10T10:59:44.732Z,3.10
2019-06-10T11:02:12.732Z,3.07
2019-06-10T11:04:44.328Z,3.03
2019-06-10T11:07:12.948Z,3.60
2019-06-10T11:09:42.469Z,3.47
2019-06-10T11:12:10.535Z,4.17
2019-06-10T11:14:42.424Z,3.10
2019-06-10T11:17:09.608Z,3.47
2019-06-10T11:19:38.468Z,3.43
2019-06-10T11:22:07.381Z,3.70
2019-06-10T11:24:41.190Z,3.40
2019-06-10T11:27:05.130Z,3.80
2019-06-10T11:29:33.979Z,3.50
2019-06-10T11:32:03.392Z,4.17
2019-06-10T11:34:33.275Z,4.00
2019-06-10T11:37:02.308Z,4.20
2019-06-10T11:39:33.286Z,3.03
2019-06-10T11:42:02.218Z,3.23
2019-06-10T11:44:29.827Z,7.07
2019-06-10T11:46:59.721Z,3.00
2019-06-10T11:49:28.703Z,3.47
2019-06-10T11:51:59.690Z,3.50
2019-06-10T11:54:29.079Z,3.40
2019-06-10T11:56:58.758Z,4.40
2019-06-10T11:59:26.753Z,2.90
2019-06-10T12:02:01.700Z,3.63
2019-06-10T12:04:27.936Z,4.10
2019-06-10T12:06:57.051Z,3.30
2019-06-10T12:09:25.923Z,3.70
2019-06-10T12:12:01.410Z,3.80
2019-06-10T12:14:27.168Z,4.67
2019-06-10T12:19:23.763Z,4.20
2019-06-10T12:21:55.676Z,3.93
2019-06-10T12:24:23.048Z,2.90
2019-06-10T12:26:57.989Z,4.20
2019-06-10T12:29:23.671Z,4.00
2019-06-10T12:31:56.145Z,4.53
2019-06-10T12:34:22.721Z,4.80
2019-06-10T12:36:56.292Z,4.30
2019-06-10T12:39:22.903Z,4.63
2019-06-10T12:41:53.154Z,4.50
2019-06-10T12:44:22.609Z,4.33
2019-06-10T12:46:53.303Z,3.40
2019-06-10T12:49:19.188Z,3.97
2019-06-10T12:51:48.019Z,3.70
2019-06-10T12:54:16.929Z,3.37
2019-06-10T12:56:48.151Z,3.80
2019-06-10T12:59:17.656Z,3.40
2019-06-10T13:01:46.750Z,3.33
2019-06-10T13:04:16.155Z,2.73
2019-06-10T13:06:44.982Z,2.87
2019-06-10T13:09:15.548Z,3.00
2019-06-10T13:11:44.501Z,2.93
2019-06-10T13:14:14.419Z,2.70
2019-06-10T13:16:44.118Z,3.40
2019-06-10T13:19:13.430Z,2.87
2019-06-10T13:21:42.583Z,3.43
2019-06-10T13:24:12.935Z,3.23
2019-06-10T13:26:39.646Z,3.33
2019-06-10T13:29:10.222Z,3.20
2019-06-10T13:31:38.067Z,6.83
2019-06-10T13:34:11.337Z,5.47
2019-06-10T13:36:36.467Z,3.10
2019-06-10T13:39:10.164Z,3.70
2019-06-10T13:41:36.745Z,3.57
2019-06-10T13:44:08.292Z,4.20
2019-06-10T13:46:35.996Z,3.60
2019-06-10T13:49:08.629Z,3.57
2019-06-10T13:51:35.646Z,3.40
2019-06-10T13:54:06.298Z,3.60
2019-06-10T13:56:46.149Z,4.53
2019-06-10T13:59:04.091Z,4.10
2019-06-10T14:01:34.890Z,3.67
2019-06-10T14:04:02.878Z,4.30
2019-06-10T14:06:45.466Z,4.30
2019-06-10T14:08:58.046Z,4.07
2019-06-10T14:11:29.983Z,3.80
2019-06-10T14:13:56.079Z,4.77
2019-06-10T14:16:25.015Z,4.57
2019-06-10T14:18:54.262Z,3.80
2019-06-10T14:21:23.543Z,4.17
2019-06-10T14:23:53.755Z,4.27
2019-06-10T14:26:37.156Z,4.17
2019-06-10T14:28:52.586Z,4.60
2019-06-10T14:31:38.296Z,4.60
2019-06-10T14:33:49.796Z,3.70
2019-06-10T14:36:18.760Z,4.40
2019-06-10T14:38:47.693Z,5.87
2019-06-10T14:41:16.589Z,4.77
2019-06-10T14:43:45.512Z,4.80
2019-06-10T14:46:17.587Z,3.80
2019-06-10T14:48:45.851Z,3.50
2019-06-10T14:51:16.883Z,3.77
2019-06-10T14:53:43.933Z,4.00
2019-06-10T14:56:16.505Z,5.57
2019-06-10T14:58:43.280Z,3.83
2019-06-10T15:01:18.822Z,3.93
2019-06-10T15:03:42.964Z,4.13
2019-06-10T15:06:11.425Z,3.77
2019-06-10T15:08:42.707Z,2.87
2019-06-10T15:11:09.666Z,3.00
2019-06-10T15:13:38.135Z,2.83
2019-06-10T15:16:08.215Z,3.07
2019-06-10T15:18:36.245Z,3.30
2019-06-10T15:21:05.284Z,3.30
2019-06-10T15:23:34.167Z,3.10
2019-06-10T15:26:03.205Z,3.23
2019-06-10T15:28:32.050Z,5.60
2019-06-10T15:31:03.046Z,3.70
2019-06-10T15:33:32.833Z,2.83
2019-06-10T15:36:03.642Z,6.83
2019-06-10T15:38:32.937Z,3.60
2019-06-10T15:41:02.392Z,3.10
2019-06-10T15:43:33.068Z,3.40
2019-06-10T15:46:03.394Z,3.97
2019-06-10T15:48:31.719Z,3.10
2019-06-10T15:51:03.056Z,3.47
2019-06-10T15:53:32.731Z,3.07
2019-06-10T15:56:29.874Z,3.63
2019-06-10T15:58:31.972Z,3.70
2019-06-10T16:00:58.941Z,4.73
2019-06-10T16:03:27.978Z,4.53
2019-06-10T16:05:56.877Z,4.60
2019-06-10T16:08:25.889Z,3.43
2019-06-10T16:10:54.767Z,3.93
2019-06-10T16:13:25.812Z,4.20
2019-06-10T16:15:53.455Z,5.27
2019-06-10T16:18:26.029Z,4.43
2019-06-10T16:20:52.720Z,7.10
2019-06-10T16:23:23.015Z,5.03
2019-06-10T16:25:49.237Z,11.93
2019-06-10T16:28:20.805Z,4.33
2019-06-10T16:30:49.499Z,4.13
2019-06-10T16:33:19.115Z,3.70
2019-06-10T16:35:48.090Z,3.83
2019-06-10T16:38:17.012Z,3.40
2019-06-10T16:40:45.975Z,3.87
2019-06-10T16:43:15.622Z,3.30
2019-06-10T16:45:43.771Z,3.33
2019-06-10T16:48:12.993Z,2.93
2019-06-10T16:50:42.640Z,3.10
2019-06-10T16:53:13.443Z,3.30
2019-06-10T16:55:39.927Z,6.33
2019-06-10T16:58:08.850Z,3.73
2019-06-10T17:00:37.672Z,2.70
2019-06-10T17:03:06.592Z,2.80
2019-06-10T17:05:35.593Z,3.10
2019-06-10T17:08:04.514Z,2.90
2019-06-10T17:10:34.464Z,3.10
2019-06-10T17:13:03.548Z,3.00
2019-06-10T17:15:34.216Z,3.20
2019-06-10T17:18:03.108Z,3.50
2019-06-10T17:20:34.189Z,3.60
2019-06-10T17:23:05.315Z,3.00
2019-06-10T17:25:34.453Z,4.00
2019-06-10T17:28:17.749Z,3.43
2019-06-10T17:30:34.742Z,4.63
2019-06-10T17:33:02.296Z,4.47
2019-06-10T17:35:36.403Z,5.00
2019-06-10T17:37:59.740Z,4.57
2019-06-10T17:40:29.202Z,5.27
2019-06-10T17:42:57.754Z,4.93
2019-06-10T17:45:28.844Z,5.77
2019-06-10T17:47:56.247Z,5.93
2019-06-10T17:50:28.019Z,6.20
2019-06-10T17:52:56.005Z,5.63
2019-06-10T17:55:26.568Z,6.37
2019-06-10T17:57:54.497Z,6.03
2019-06-10T18:00:25.934Z,5.10
2019-06-10T18:02:53.561Z,6.20
2019-06-10T18:05:23.740Z,6.53
2019-06-10T18:07:52.750Z,6.00
2019-06-10T18:10:22.787Z,7.60
2019-06-10T18:12:52.748Z,6.13
2019-06-10T18:15:22.087Z,4.87
2019-06-10T18:17:49.107Z,5.20
2019-06-10T18:20:18.279Z,5.53
2019-06-10T18:22:49.430Z,4.67
2019-06-10T18:25:18.348Z,5.90
2019-06-10T18:27:49.035Z,4.97
2019-06-10T18:30:17.936Z,6.30
2019-06-10T18:32:46.784Z,6.47
2019-06-10T18:35:16.175Z,6.60
2019-06-10T18:37:45.750Z,7.43
2019-06-10T18:40:14.793Z,7.57
2019-06-10T18:42:44.562Z,8.00
2019-06-10T18:45:14.223Z,5.57
2019-06-10T18:47:43.855Z,6.97
2019-06-10T18:50:12.816Z,6.93
2019-06-10T18:52:43.304Z,5.83
2019-06-10T18:55:12.262Z,6.87
2019-06-10T18:57:42.455Z,6.27
2019-06-10T19:00:11.918Z,6.50
2019-06-10T19:02:39.646Z,7.27
2019-06-10T19:05:13.055Z,6.17
2019-06-10T19:07:42.863Z,6.17
2019-06-10T19:10:10.554Z,7.00
2019-06-10T19:12:39.791Z,5.83
2019-06-10T19:15:09.392Z,9.20
2019-06-10T19:17:40.472Z,9.53
2019-06-10T19:20:09.298Z,7.60
2019-06-10T19:22:39.062Z,8.23
2019-06-10T19:25:08.661Z,8.23
2019-06-10T19:27:39.527Z,9.07
2019-06-10T19:30:07.877Z,13.07
2019-06-10T19:32:38.296Z,10.27
2019-06-10T19:35:07.026Z,7.87
2019-06-10T19:37:36.124Z,8.60
2019-06-10T19:40:04.932Z,8.00
2019-06-10T19:42:37.214Z,8.33
2019-06-10T19:45:07.160Z,8.90
2019-06-10T19:47:37.994Z,8.03
2019-06-10T19:50:07.123Z,7.70
2019-06-10T19:52:37.215Z,5.97
2019-06-10T19:55:07.939Z,5.67
2019-06-10T19:57:37.495Z,5.40
2019-06-10T20:00:11.692Z,5.97
2019-06-10T20:02:35.814Z,6.93
2019-06-10T20:05:06.110Z,6.53
2019-06-10T20:07:35.848Z,6.57
2019-06-10T20:10:05.122Z,6.37
2019-06-10T20:12:34.265Z,6.07
2019-06-10T20:15:02.912Z,7.63
2019-06-10T20:17:32.800Z,6.07
2019-06-10T20:20:02.546Z,6.97
2019-06-10T20:22:32.042Z,8.20
2019-06-10T20:24:59.286Z,7.47
2019-06-10T20:27:33.046Z,8.23
2019-06-10T20:30:10.185Z,6.27
2019-06-10T20:32:29.178Z,5.97
2019-06-10T20:34:58.804Z,5.73
2019-06-10T20:37:28.424Z,5.63
2019-06-10T20:39:57.563Z,6.03
2019-06-10T20:42:26.440Z,5.63
2019-06-10T20:44:55.635Z,6.00
2019-06-10T20:47:24.546Z,5.40
2019-06-10T20:49:55.966Z,4.93
2019-06-10T20:52:23.358Z,5.73
2019-06-10T20:54:53.196Z,5.67
2019-06-10T20:57:22.926Z,4.80
2019-06-10T20:59:53.155Z,4.67
2019-06-10T21:02:22.537Z,4.43
2019-06-10T21:04:53.270Z,4.27
2019-06-10T21:07:25.355Z,5.60
2019-06-10T21:09:56.204Z,4.67
2019-06-10T21:12:25.575Z,3.80
2019-06-10T21:14:55.902Z,4.90
2019-06-10T21:17:24.731Z,3.90
2019-06-10T21:19:54.776Z,4.73
2019-06-10T21:22:23.841Z,4.20
2019-06-10T21:24:53.776Z,4.00
2019-06-10T21:27:24.043Z,4.20
2019-06-10T21:29:54.698Z,3.70
2019-06-10T21:32:23.085Z,4.47
2019-06-10T21:34:53.888Z,3.87
2019-06-10T21:37:22.926Z,3.97
2019-06-10T21:39:55.400Z,4.07
2019-06-10T21:42:22.912Z,4.40
2019-06-10T21:44:50.532Z,3.70
2019-06-10T21:47:20.014Z,3.60
2019-06-10T21:49:53.094Z,4.50
2019-06-10T21:52:19.467Z,4.37
2019-06-10T21:54:48.629Z,4.70
2019-06-10T21:57:17.556Z,5.00
2019-06-10T21:59:47.035Z,4.30
2019-06-10T22:02:17.359Z,4.10
2019-06-10T22:04:47.806Z,4.80
2019-06-10T22:07:15.550Z,4.33
2019-06-10T22:09:45.598Z,5.70
2019-06-10T22:12:14.828Z,4.83
2019-06-10T22:14:46.119Z,6.97
2019-06-10T22:17:14.186Z,5.47
2019-06-10T22:19:44.543Z,5.80
2019-06-10T22:22:13.155Z,4.90
2019-06-10T22:24:42.461Z,5.00
2019-06-10T22:27:13.005Z,5.63
2019-06-10T22:29:42.695Z,6.40
2019-06-10T22:32:12.965Z,6.30
2019-06-10T22:34:42.129Z,5.20
2019-06-10T22:37:12.460Z,5.60
2019-06-10T22:39:42.040Z,5.97
2019-06-10T22:42:12.365Z,6.17
2019-06-10T22:44:42.370Z,6.00
2019-06-10T22:47:12.176Z,6.13
2019-06-10T22:49:43.031Z,7.43
2019-06-10T22:52:12.410Z,6.37
2019-06-10T22:54:43.054Z,7.47
2019-06-10T22:57:12.828Z,7.23
2019-06-10T22:59:39.170Z,6.77
2019-06-10T23:02:08.199Z,8.13
2019-06-10T23:04:43.241Z,8.63
2019-06-10T23:07:09.858Z,8.17
2019-06-10T23:09:39.003Z,8.30
2019-06-10T23:12:07.983Z,7.73
2019-06-10T23:14:37.788Z,7.00
2019-06-10T23:17:07.996Z,7.67
2019-06-10T23:19:37.596Z,8.10
2019-06-10T23:22:06.488Z,8.07
2019-06-10T23:24:35.305Z,7.03
2019-06-10T23:27:04.206Z,7.40
2019-06-10T23:29:36.274Z,8.93
2019-06-10T23:32:06.970Z,9.50
2019-06-10T23:34:37.559Z,9.83
2019-06-10T23:37:06.726Z,9.03
2019-06-10T23:39:35.573Z,8.90
2019-06-10T23:42:04.587Z,8.03
2019-06-10T23:44:33.901Z,8.30
2019-06-10T23:47:04.074Z,7.77
2019-06-10T23:49:32.291Z,8.10
2019-06-10T23:52:03.730Z,7.33
2019-06-10T23:54:32.304Z,7.47
2019-06-10T23:56:59.191Z,7.47
2019-06-10T23:59:28.060Z,8.17
